Time;durP1;ratioP1;P1;durP2;ratioP2;P2;SDS_P1;SDS_P2;PMS_P1;PMS_P2;Temp;Humidity;BMP_temperature;BMP_pressure;BME280_temperature;BME280_humidity;BME280_pressure;Samples;Min_cycle;Max_cycle;Signal;HPM_P1;HPM_P2
2022/07/24 00:00:59;;;;;;;10.77;9.13;;;;;;;;;;5022409;28;20659;-89
2022/07/24 00:04:05;;;;;;;11.03;9.93;;;;;;;;;;5013238;28;20192;-89
2022/07/24 00:07:09;;;;;;;11.93;10.33;;;;;;;;;;5032505;28;20223;-89
2022/07/24 00:10:13;;;;;;;13.87;10.50;;;;;;;;;;5033473;28;20187;-89
2022/07/24 00:13:17;;;;;;;13.30;9.67;;;;;;;;;;5010145;28;20583;-89
2022/07/24 00:16:22;;;;;;;12.73;9.23;;;;;;;;;;5013096;28;20234;-89
2022/07/24 00:19:26;;;;;;;14.40;10.03;;;;;;;;;;5030641;28;20187;-89
2022/07/24 00:22:30;;;;;;;11.90;10.50;;;;;;;;;;5030078;28;20547;-87
2022/07/24 00:25:34;;;;;;;11.57;10.37;;;;;;;;;;5001713;28;20199;-88
2022/07/24 00:28:38;;;;;;;13.20;11.07;;;;;;;;;;5000257;28;20187;-89
2022/07/24 00:31:42;;;;;;;11.57;10.33;;;;;;;;;;5016706;28;20226;-89
2022/07/24 00:34:47;;;;;;;11.70;10.50;;;;;;;;;;5019091;28;20183;-89
2022/07/24 00:37:51;;;;;;;12.20;10.90;;;;;;;;;;4979640;28;20228;-89
2022/07/24 00:40:55;;;;;;;17.10;10.83;;;;;;;;;;4991153;28;20201;-89
2022/07/24 00:44:04;;;;;;;13.30;10.90;;;;;;;;;;4979991;28;20176;-89
2022/07/24 00:47:08;;;;;;;13.17;10.63;;;;;;;;;;5013223;28;20220;-89
2022/07/24 00:50:12;;;;;;;12.57;11.20;;;;;;;;;;4996813;28;20196;-89
2022/07/24 00:53:17;;;;;;;13.20;11.73;;;;;;;;;;4999275;28;20212;-88
2022/07/24 00:56:21;;;;;;;14.37;11.60;;;;;;;;;;4999256;28;20231;-89
2022/07/24 00:59:25;;;;;;;14.70;11.50;;;;;;;;;;5021732;28;20208;-88
2022/07/24 01:02:29;;;;;;;13.23;10.27;;;;;;;;;;5005494;28;20554;-88
2022/07/24 01:05:33;;;;;;;14.13;9.93;;;;;;;;;;5030007;28;20654;-89
2022/07/24 01:08:37;;;;;;;12.60;10.73;;;;;;;;;;5017792;28;20204;-89
2022/07/24 01:11:42;;;;;;;15.73;10.83;;;;;;;;;;5021696;28;20199;-88
2022/07/24 01:14:46;;;;;;;14.67;11.00;;;;;;;;;;5007770;28;20570;-89
2022/07/24 01:17:50;;;;;;;14.60;11.67;;;;;;;;;;5030062;28;20238;-89
2022/07/24 01:20:55;;;;;;;12.43;11.20;;;;;;;;;;5034128;28;20187;-89
2022/07/24 01:23:59;;;;;;;12.67;11.13;;;;;;;;;;5022105;28;20179;-89
2022/07/24 01:27:03;;;;;;;13.50;11.23;;;;;;;;;;5044945;28;20219;-89
2022/07/24 01:30:08;;;;;;;13.67;10.73;;;;;;;;;;5023970;28;20562;-89
2022/07/24 01:33:13;;;;;;;12.37;11.17;;;;;;;;;;5003922;28;20239;-89
2022/07/24 01:36:17;;;;;;;13.77;12.00;;;;;;;;;;5013968;28;20219;-89
2022/07/24 01:39:21;;;;;;;13.23;11.27;;;;;;;;;;5004626;28;20203;-88
2022/07/24 01:42:26;;;;;;;15.43;12.17;;;;;;;;;;5022450;28;20183;-89
2022/07/24 01:45:30;;;;;;;12.93;11.73;;;;;;;;;;5033511;28;20182;-89
2022/07/24 01:48:34;;;;;;;12.77;11.33;;;;;;;;;;5017015;28;20204;-85
2022/07/24 01:51:38;;;;;;;12.73;11.43;;;;;;;;;;5024802;28;20260;-85
2022/07/24 01:54:42;;;;;;;12.87;11.57;;;;;;;;;;5002115;28;20264;-85
2022/07/24 01:57:47;;;;;;;12.80;11.50;;;;;;;;;;5001892;28;20227;-85
2022/07/24 02:00:51;;;;;;;13.37;11.97;;;;;;;;;;5013271;28;20220;-85
2022/07/24 02:03:56;;;;;;;14.70;13.10;;;;;;;;;;5002053;28;20355;-85
2022/07/24 02:07:00;;;;;;;18.97;13.27;;;;;;;;;;5001787;28;20288;-85
2022/07/24 02:10:04;;;;;;;18.17;13.33;;;;;;;;;;5001909;28;20188;-85
2022/07/24 02:13:08;;;;;;;18.13;12.50;;;;;;;;;;5001759;28;20239;-88
2022/07/24 02:16:12;;;;;;;15.10;11.67;;;;;;;;;;5002203;28;20239;-87
2022/07/24 02:19:17;;;;;;;16.87;11.30;;;;;;;;;;5005049;28;20199;-87
2022/07/24 02:22:21;;;;;;;15.97;12.43;;;;;;;;;;5024514;28;20516;-87
2022/07/24 02:25:25;;;;;;;14.10;11.03;;;;;;;;;;5031920;28;20195;-88
2022/07/24 02:28:29;;;;;;;14.93;12.53;;;;;;;;;;5013008;28;20651;-87
2022/07/24 02:31:33;;;;;;;15.00;11.37;;;;;;;;;;5011950;28;20196;-88
2022/07/24 02:34:37;;;;;;;15.80;11.67;;;;;;;;;;5024018;28;20184;-87
2022/07/24 02:37:44;;;;;;;12.43;11.03;;;;;;;;;;5023319;28;20227;-87
2022/07/24 02:40:48;;;;;;;11.57;10.37;;;;;;;;;;5035228;28;20180;-87
2022/07/24 02:43:52;;;;;;;13.23;11.13;;;;;;;;;;5001670;28;20208;-87
2022/07/24 02:46:56;;;;;;;16.70;12.07;;;;;;;;;;5006067;28;20250;-87
2022/07/24 02:50:00;;;;;;;14.87;11.60;;;;;;;;;;5012682;28;20188;-87
2022/07/24 02:53:06;;;;;;;14.63;11.17;;;;;;;;;;4981261;28;20216;-87
2022/07/24 02:56:10;;;;;;;12.87;11.33;;;;;;;;;;5011341;28;20227;-88
2022/07/24 02:59:14;;;;;;;12.63;11.33;;;;;;;;;;5012167;28;20188;-87
2022/07/24 03:02:18;;;;;;;14.13;11.53;;;;;;;;;;4981317;28;20189;-87
2022/07/24 03:05:22;;;;;;;12.83;11.50;;;;;;;;;;5003854;28;20188;-87
2022/07/24 03:08:26;;;;;;;12.60;11.30;;;;;;;;;;5007152;28;20235;-87
2022/07/24 03:11:30;;;;;;;12.33;11.17;;;;;;;;;;5000573;28;20191;-87
2022/07/24 03:14:35;;;;;;;16.90;11.77;;;;;;;;;;5000522;28;20219;-87
2022/07/24 03:17:39;;;;;;;16.70;11.37;;;;;;;;;;4995386;28;20227;-87
2022/07/24 03:20:43;;;;;;;14.43;12.00;;;;;;;;;;5003400;28;20560;-87
2022/07/24 03:23:48;;;;;;;15.33;11.87;;;;;;;;;;4988772;28;20188;-90
2022/07/24 03:26:53;;;;;;;13.60;12.30;;;;;;;;;;4982331;28;20224;-91
2022/07/24 03:29:56;;;;;;;14.13;10.63;;;;;;;;;;4992472;28;20184;-90
2022/07/24 03:33:01;;;;;;;13.03;11.23;;;;;;;;;;4981665;28;20224;-90
2022/07/24 03:36:05;;;;;;;14.17;11.77;;;;;;;;;;4981079;28;20307;-90
2022/07/24 03:39:09;;;;;;;13.60;11.53;;;;;;;;;;4988215;28;20200;-90
2022/07/24 03:42:13;;;;;;;13.07;11.27;;;;;;;;;;4991792;28;20189;-90
2022/07/24 03:45:18;;;;;;;13.30;12.03;;;;;;;;;;4992939;28;20208;-89
2022/07/24 03:48:21;;;;;;;13.43;11.57;;;;;;;;;;4991833;28;20197;-90
2022/07/24 03:51:26;;;;;;;13.23;10.63;;;;;;;;;;4991758;28;20192;-90
2022/07/24 03:54:30;;;;;;;15.47;11.27;;;;;;;;;;4991591;28;20714;-90
2022/07/24 03:57:34;;;;;;;14.43;13.03;;;;;;;;;;4991507;28;20219;-90
2022/07/24 04:00:38;;;;;;;16.80;12.70;;;;;;;;;;4991384;28;20192;-91
2022/07/24 04:03:42;;;;;;;14.10;11.90;;;;;;;;;;4991407;28;20192;-90
2022/07/24 04:06:46;;;;;;;13.07;11.67;;;;;;;;;;4992316;28;20232;-92
2022/07/24 04:09:51;;;;;;;13.13;11.83;;;;;;;;;;4992359;28;20564;-90
2022/07/24 04:12:54;;;;;;;15.30;12.63;;;;;;;;;;4991540;28;20572;-92
2022/07/24 04:15:59;;;;;;;12.90;11.47;;;;;;;;;;4996882;28;20231;-91
2022/07/24 04:19:03;;;;;;;14.70;11.90;;;;;;;;;;5019792;28;20187;-91
2022/07/24 04:22:07;;;;;;;12.30;11.00;;;;;;;;;;5019188;28;20187;-90
2022/07/24 04:25:12;;;;;;;14.27;11.20;;;;;;;;;;5020627;28;20175;-92
2022/07/24 04:28:16;;;;;;;12.77;11.47;;;;;;;;;;5019594;28;20206;-92
2022/07/24 04:31:21;;;;;;;11.87;10.67;;;;;;;;;;5030251;28;20183;-90
2022/07/24 04:34:25;;;;;;;17.73;12.57;;;;;;;;;;5019147;28;20313;-90
2022/07/24 04:37:29;;;;;;;12.93;11.63;;;;;;;;;;5019638;28;20290;-91
2022/07/24 04:40:34;;;;;;;19.10;12.90;;;;;;;;;;5019629;28;20187;-90
2022/07/24 04:43:38;;;;;;;13.80;11.33;;;;;;;;;;5018916;28;20187;-90
2022/07/24 04:46:42;;;;;;;13.27;11.30;;;;;;;;;;5030070;28;20227;-90
2022/07/24 04:49:46;;;;;;;13.50;12.07;;;;;;;;;;5030649;28;20210;-90
2022/07/24 04:52:50;;;;;;;18.53;13.80;;;;;;;;;;5030683;28;20190;-90
2022/07/24 04:55:54;;;;;;;14.80;13.27;;;;;;;;;;5034587;28;20214;-90
2022/07/24 04:59:01;;;;;;;13.73;12.03;;;;;;;;;;5023453;28;20179;-90
2022/07/24 05:02:05;;;;;;;12.20;10.90;;;;;;;;;;5022521;28;20733;-90
2022/07/24 05:05:10;;;;;;;12.67;10.97;;;;;;;;;;5033971;28;20670;-91
2022/07/24 05:09:05;;;;;;;16.17;12.40;;;;;;;;;;5022612;28;20677;-90
2022/07/24 05:18:08;;;;;;;15.37;11.93;;;;;;;;;;5016285;28;20689;-88
2022/07/24 05:21:14;;;;;;;12.87;11.57;;;;;;;;;;5033571;28;20175;-88
2022/07/24 05:24:18;;;;;;;12.10;10.80;;;;;;;;;;4994263;28;20192;-89
2022/07/24 05:27:22;;;;;;;13.37;11.10;;;;;;;;;;5005504;28;20588;-88
2022/07/24 05:30:26;;;;;;;13.03;11.43;;;;;;;;;;4994976;28;20537;-88
2022/07/24 05:33:31;;;;;;;13.43;11.83;;;;;;;;;;5048531;28;20234;-88
2022/07/24 05:36:36;;;;;;;16.83;12.93;;;;;;;;;;5028905;28;20220;-89
2022/07/24 09:16:47;;;;;;;9.85;5.55;;;;;;;;;;5062268;22;20224;-85
2022/07/24 09:19:54;;;;;;;6.93;5.32;;;;;;;;;;5038024;28;20646;-85
2022/07/24 09:22:59;;;;;;;6.05;5.55;;;;;;;;;;5038898;28;20195;-85
2022/07/24 09:26:04;;;;;;;6.78;6.03;;;;;;;;;;5051854;28;20180;-84
2022/07/24 09:29:11;;;;;;;7.18;5.93;;;;;;;;;;5030898;28;20204;-84
2022/07/24 09:32:22;;;;;;;6.75;6.15;;;;;;;;;;5030859;28;20546;-84
2022/07/24 09:35:41;;;;;;;9.95;6.35;;;;;;;;;;5019803;28;20683;-85
2022/07/24 09:38:52;;;;;;;6.28;5.78;;;;;;;;;;5029787;28;20628;-85
2022/07/24 09:41:57;;;;;;;6.75;5.45;;;;;;;;;;5033062;28;20196;-84
2022/07/24 09:45:02;;;;;;;6.22;5.63;;;;;;;;;;5033100;28;20192;-85
2022/07/24 09:48:06;;;;;;;6.05;5.47;;;;;;;;;;5032290;28;20217;-85
2022/07/24 09:51:15;;;;;;;6.22;5.65;;;;;;;;;;5044289;28;20177;-85
2022/07/24 09:54:35;;;;;;;6.75;6.03;;;;;;;;;;5032540;28;20216;-85
2022/07/24 09:57:39;;;;;;;6.07;5.50;;;;;;;;;;5035663;28;20213;-85
2022/07/24 10:00:43;;;;;;;5.97;5.47;;;;;;;;;;5013892;28;20181;-86
2022/07/24 10:03:49;;;;;;;7.97;5.60;;;;;;;;;;5024429;28;20181;-85
2022/07/24 10:06:53;;;;;;;6.80;5.43;;;;;;;;;;5054801;28;20216;-85
2022/07/24 10:09:59;;;;;;;5.65;5.15;;;;;;;;;;5032156;28;20208;-85
2022/07/24 10:13:04;;;;;;;7.30;5.80;;;;;;;;;;5032002;28;20204;-85
2022/07/24 10:16:14;;;;;;;6.68;6.07;;;;;;;;;;5045149;28;20256;-86
2022/07/24 10:19:28;;;;;;;7.18;6.00;;;;;;;;;;5036844;28;20177;-85
2022/07/24 10:22:52;;;;;;;6.43;5.78;;;;;;;;;;5046761;28;20181;-85
2022/07/24 10:26:06;;;;;;;6.90;5.45;;;;;;;;;;5030904;28;20196;-85
2022/07/24 10:29:11;;;;;;;6.68;5.93;;;;;;;;;;5025428;28;20205;-85
2022/07/24 10:32:16;;;;;;;6.25;5.65;;;;;;;;;;5025094;28;20177;-85
2022/07/24 10:35:24;;;;;;;7.22;5.72;;;;;;;;;;5018159;28;20200;-85
2022/07/24 10:38:39;;;;;;;6.25;5.70;;;;;;;;;;5033569;28;20208;-86
2022/07/24 10:41:43;;;;;;;6.22;5.63;;;;;;;;;;5033016;28;20185;-85
2022/07/24 10:45:13;;;;;;;7.07;5.55;;;;;;;;;;5020506;28;20516;-86
2022/07/24 10:48:20;;;;;;;7.00;5.45;;;;;;;;;;5021283;28;20563;-85
2022/07/24 10:51:25;;;;;;;6.88;5.78;;;;;;;;;;5031679;28;20181;-85
2022/07/24 10:54:29;;;;;;;6.97;6.38;;;;;;;;;;5023465;28;20200;-85
2022/07/24 10:57:47;;;;;;;7.95;5.82;;;;;;;;;;5011750;28;20690;-85
2022/07/24 11:00:51;;;;;;;6.15;5.55;;;;;;;;;;5042713;28;20201;-86
2022/07/24 11:03:57;;;;;;;6.75;5.93;;;;;;;;;;5037791;28;20539;-86
2022/07/24 11:07:11;;;;;;;5.47;4.97;;;;;;;;;;5013289;28;20217;-85
2022/07/24 11:10:15;;;;;;;6.18;5.55;;;;;;;;;;5025747;28;20177;-85
2022/07/24 11:13:31;;;;;;;6.30;5.70;;;;;;;;;;5037381;28;20177;-85
2022/07/24 11:16:36;;;;;;;6.45;5.30;;;;;;;;;;5044966;28;20217;-85
2022/07/24 11:19:40;;;;;;;6.03;5.43;;;;;;;;;;5065220;28;20184;-85
2022/07/24 11:22:53;;;;;;;6.68;5.90;;;;;;;;;;5064930;28;20180;-84
2022/07/24 11:26:31;;;;;;;6.55;4.90;;;;;;;;;;5064193;28;20180;-84
2022/07/24 11:29:37;;;;;;;5.07;4.68;;;;;;;;;;5062934;28;20603;-85
2022/07/24 11:32:42;;;;;;;5.57;5.07;;;;;;;;;;5031290;28;20181;-85
2022/07/24 11:35:47;;;;;;;5.70;5.07;;;;;;;;;;5052595;28;20559;-85
2022/07/24 11:38:51;;;;;;;6.60;4.88;;;;;;;;;;5049329;28;20534;-87
2022/07/24 11:42:04;;;;;;;5.38;4.88;;;;;;;;;;5036865;28;20185;-86
2022/07/24 11:45:09;;;;;;;5.47;4.90;;;;;;;;;;5035640;28;20193;-86
2022/07/24 11:48:20;;;;;;;6.88;4.85;;;;;;;;;;5045109;28;20216;-86
2022/07/24 11:51:24;;;;;;;5.22;4.82;;;;;;;;;;5040370;28;20189;-86
2022/07/24 11:54:28;;;;;;;6.95;5.38;;;;;;;;;;5022371;28;20182;-87
2022/07/24 11:57:38;;;;;;;5.57;5.07;;;;;;;;;;5022663;28;20217;-86
2022/07/24 12:00:47;;;;;;;7.53;5.07;;;;;;;;;;5023052;28;20189;-87
2022/07/24 12:03:53;;;;;;;5.03;4.57;;;;;;;;;;4999953;28;20185;-86
2022/07/24 12:06:57;;;;;;;5.97;5.35;;;;;;;;;;5021846;28;20560;-86
2022/07/24 12:10:03;;;;;;;5.20;4.78;;;;;;;;;;4999680;28;20632;-86
2022/07/24 12:13:07;;;;;;;7.15;5.63;;;;;;;;;;4999222;28;20181;-86
2022/07/24 12:16:11;;;;;;;5.45;4.90;;;;;;;;;;5021625;28;20228;-86
2022/07/24 12:19:17;;;;;;;8.05;5.20;;;;;;;;;;5033181;28;20177;-86
2022/07/24 12:22:23;;;;;;;5.63;4.50;;;;;;;;;;5033139;28;20182;-85
2022/07/24 12:25:28;;;;;;;7.10;4.63;;;;;;;;;;5032937;28;20174;-85
2022/07/24 12:28:32;;;;;;;5.45;4.95;;;;;;;;;;5021817;28;20212;-85
2022/07/24 12:31:36;;;;;;;5.13;4.63;;;;;;;;;;5032794;28;20185;-85
2022/07/24 12:34:42;;;;;;;4.93;4.53;;;;;;;;;;5033507;28;20513;-85
2022/07/24 12:37:46;;;;;;;5.40;4.50;;;;;;;;;;5021591;28;20220;-84
2022/07/24 12:40:51;;;;;;;4.85;4.45;;;;;;;;;;5032801;28;20177;-84
2022/07/24 12:43:58;;;;;;;7.35;4.97;;;;;;;;;;5021536;28;20181;-84
2022/07/24 12:47:02;;;;;;;5.88;5.00;;;;;;;;;;5032341;28;20213;-84
2022/07/24 12:50:13;;;;;;;5.07;4.68;;;;;;;;;;5032276;28;20197;-84
2022/07/24 12:53:17;;;;;;;5.47;4.97;;;;;;;;;;5032532;28;20173;-84
2022/07/24 12:56:22;;;;;;;5.47;4.97;;;;;;;;;;5032514;28;20200;-84
2022/07/24 12:59:37;;;;;;;6.80;5.40;;;;;;;;;;5032599;28;20201;-84
2022/07/24 13:02:43;;;;;;;5.40;5.00;;;;;;;;;;5020958;28;20189;-84
2022/07/24 13:05:55;;;;;;;5.93;4.95;;;;;;;;;;5021199;28;20197;-83
2022/07/24 13:08:59;;;;;;;7.47;5.45;;;;;;;;;;5043776;28;20181;-84
2022/07/24 13:12:05;;;;;;;6.97;5.22;;;;;;;;;;5021269;28;20177;-84
2022/07/24 13:15:09;;;;;;;5.80;5.20;;;;;;;;;;5023780;28;20189;-84
2022/07/24 13:18:13;;;;;;;6.20;5.00;;;;;;;;;;5024710;28;20220;-84
2022/07/24 13:21:19;;;;;;;5.25;4.80;;;;;;;;;;5036177;28;20535;-84
2022/07/24 13:24:23;;;;;;;5.93;5.32;;;;;;;;;;5032537;28;20192;-84
2022/07/24 13:27:27;;;;;;;6.07;5.47;;;;;;;;;;5032657;28;20208;-84
2022/07/24 13:30:31;;;;;;;6.35;5.50;;;;;;;;;;5043053;28;20185;-84
2022/07/24 13:33:35;;;;;;;8.23;5.20;;;;;;;;;;5041151;28;20192;-84
2022/07/24 13:36:39;;;;;;;5.53;5.03;;;;;;;;;;5032699;28;20200;-85
2022/07/24 13:39:43;;;;;;;6.30;5.07;;;;;;;;;;5043780;28;20188;-85
2022/07/24 13:42:47;;;;;;;6.13;5.18;;;;;;;;;;5029958;28;20180;-85
2022/07/24 13:45:51;;;;;;;7.05;5.40;;;;;;;;;;5032029;28;20535;-85
2022/07/24 13:48:56;;;;;;;7.00;5.28;;;;;;;;;;5030801;28;20543;-85
2022/07/24 13:52:00;;;;;;;7.32;5.28;;;;;;;;;;5031930;28;20192;-85
2022/07/24 13:55:05;;;;;;;5.90;5.40;;;;;;;;;;5031796;28;20185;-85
2022/07/24 13:58:09;;;;;;;5.88;5.38;;;;;;;;;;5025941;28;20228;-85
2022/07/24 14:01:13;;;;;;;5.53;4.88;;;;;;;;;;5035312;28;20204;-86
2022/07/24 14:04:18;;;;;;;5.68;4.65;;;;;;;;;;5047118;28;20178;-85
2022/07/24 14:07:22;;;;;;;6.25;5.65;;;;;;;;;;5023705;28;20212;-84
2022/07/24 14:10:26;;;;;;;4.75;4.32;;;;;;;;;;5024075;28;20185;-84
2022/07/24 14:13:31;;;;;;;5.95;5.13;;;;;;;;;;5012760;28;20177;-84
2022/07/24 14:16:36;;;;;;;6.70;5.53;;;;;;;;;;5023353;28;20205;-84
2022/07/24 14:19:40;;;;;;;7.63;5.40;;;;;;;;;;5023589;28;20520;-84
2022/07/24 14:22:45;;;;;;;6.70;5.70;;;;;;;;;;5012566;28;20185;-84
2022/07/24 14:25:49;;;;;;;6.20;5.60;;;;;;;;;;5022684;28;20173;-86
2022/07/24 14:28:53;;;;;;;6.35;5.20;;;;;;;;;;5012384;28;20185;-84
2022/07/24 14:31:57;;;;;;;10.20;5.50;;;;;;;;;;5023573;28;20181;-84
2022/07/24 14:35:05;;;;;;;5.70;5.18;;;;;;;;;;5035248;28;20205;-84
2022/07/24 14:38:09;;;;;;;5.55;5.10;;;;;;;;;;5012278;28;20213;-84
2022/07/24 14:41:13;;;;;;;5.72;5.22;;;;;;;;;;5012014;28;20181;-84
2022/07/24 14:44:18;;;;;;;5.82;5.22;;;;;;;;;;5023574;28;20181;-84
2022/07/24 14:47:22;;;;;;;5.93;5.32;;;;;;;;;;5034503;28;20213;-84
2022/07/24 14:50:26;;;;;;;7.28;5.65;;;;;;;;;;5034599;28;20173;-84
2022/07/24 14:53:30;;;;;;;6.50;5.55;;;;;;;;;;5023721;28;20173;-84
2022/07/24 14:56:35;;;;;;;7.35;5.40;;;;;;;;;;5045849;28;20201;-84
2022/07/24 14:59:40;;;;;;;5.85;5.25;;;;;;;;;;5023078;28;20189;-84
2022/07/24 15:02:44;;;;;;;5.55;5.05;;;;;;;;;;5034691;28;20178;-84
2022/07/24 15:05:48;;;;;;;5.80;5.30;;;;;;;;;;5012103;28;20169;-84
2022/07/24 15:08:53;;;;;;;6.18;5.57;;;;;;;;;;5023143;28;20173;-84
2022/07/24 15:11:57;;;;;;;5.68;5.18;;;;;;;;;;5040472;28;20200;-84
2022/07/24 15:15:01;;;;;;;5.47;4.97;;;;;;;;;;5020255;28;20193;-84
2022/07/24 15:18:05;;;;;;;6.05;5.47;;;;;;;;;;5062525;22;20234;-88
2022/07/24 15:21:09;;;;;;;6.45;5.63;;;;;;;;;;5063252;28;20191;-89
2022/07/24 15:24:13;;;;;;;5.93;5.43;;;;;;;;;;5082745;28;20179;-89
2022/07/24 15:27:18;;;;;;;6.07;5.57;;;;;;;;;;5082503;28;20179;-87
2022/07/24 15:30:22;;;;;;;7.65;5.88;;;;;;;;;;5050706;28;20184;-89
2022/07/24 15:33:26;;;;;;;6.35;5.65;;;;;;;;;;5062081;28;20179;-84
2022/07/24 15:36:31;;;;;;;8.02;5.47;;;;;;;;;;5061642;28;20215;-89
2022/07/24 15:39:35;;;;;;;7.53;5.57;;;;;;;;;;5050816;28;20215;-88
2022/07/24 15:42:39;;;;;;;7.05;5.00;;;;;;;;;;5041837;28;20189;-89
2022/07/24 15:45:43;;;;;;;5.80;5.20;;;;;;;;;;5046134;28;20187;-89
2022/07/24 15:48:47;;;;;;;5.50;5.00;;;;;;;;;;5050328;28;20211;-88
2022/07/24 15:51:51;;;;;;;6.10;5.60;;;;;;;;;;5041942;28;20204;-91
2022/07/24 15:54:55;;;;;;;8.10;5.82;;;;;;;;;;5053540;28;20188;-90
2022/07/24 15:58:01;;;;;;;6.22;5.63;;;;;;;;;;5050673;28;20208;-91
2022/07/24 16:01:05;;;;;;;6.20;5.70;;;;;;;;;;5061855;28;20654;-92
2022/07/24 16:04:09;;;;;;;6.38;5.63;;;;;;;;;;5050244;28;20518;-91
2022/07/24 16:07:15;;;;;;;6.15;5.55;;;;;;;;;;5050741;28;20180;-91
2022/07/24 16:10:20;;;;;;;7.05;6.30;;;;;;;;;;5050962;28;20179;-91
2022/07/24 16:13:24;;;;;;;7.95;6.30;;;;;;;;;;5051064;28;20188;-92
2022/07/24 16:16:29;;;;;;;6.45;5.85;;;;;;;;;;5050428;28;20553;-91
2022/07/24 16:19:34;;;;;;;6.68;5.70;;;;;;;;;;5050399;28;20700;-91
2022/07/24 16:22:38;;;;;;;6.03;5.53;;;;;;;;;;5046027;28;20191;-91
2022/07/24 16:25:42;;;;;;;7.63;5.68;;;;;;;;;;5053757;28;20176;-91
2022/07/24 16:28:46;;;;;;;6.30;5.75;;;;;;;;;;5050283;28;20215;-90
2022/07/24 16:31:50;;;;;;;6.53;5.85;;;;;;;;;;5050918;28;20187;-90
2022/07/24 16:34:54;;;;;;;7.13;5.85;;;;;;;;;;5039320;28;20183;-90
2022/07/24 16:37:59;;;;;;;6.07;5.57;;;;;;;;;;5050260;28;20658;-90
2022/07/24 16:41:03;;;;;;;6.38;5.50;;;;;;;;;;5050220;28;20199;-90
2022/07/24 16:44:07;;;;;;;8.05;6.13;;;;;;;;;;5062003;28;20180;-90
2022/07/24 16:47:11;;;;;;;7.57;6.15;;;;;;;;;;5049863;28;20199;-90
2022/07/24 16:50:15;;;;;;;6.65;5.80;;;;;;;;;;5045951;28;20192;-90
2022/07/24 16:53:19;;;;;;;6.53;5.93;;;;;;;;;;5045931;28;20199;-90
2022/07/24 16:56:23;;;;;;;6.22;5.68;;;;;;;;;;5043623;28;20204;-90
2022/07/24 16:59:27;;;;;;;6.75;5.63;;;;;;;;;;5045209;28;20227;-90
2022/07/24 17:02:31;;;;;;;6.35;5.70;;;;;;;;;;5044683;28;20180;-91
2022/07/24 17:05:36;;;;;;;9.77;5.95;;;;;;;;;;5038405;28;20669;-90
2022/07/24 17:08:39;;;;;;;7.47;6.05;;;;;;;;;;5058087;28;20215;-90
2022/07/24 17:11:45;;;;;;;6.80;5.80;;;;;;;;;;5053319;28;20657;-90
2022/07/24 17:14:49;;;;;;;6.47;5.88;;;;;;;;;;5047883;28;20184;-90
2022/07/24 17:18:03;;;;;;;6.13;5.53;;;;;;;;;;5046379;28;20223;-90
2022/07/24 17:21:07;;;;;;;5.75;5.20;;;;;;;;;;5049257;28;20202;-90
2022/07/24 17:24:11;;;;;;;6.72;5.72;;;;;;;;;;5050445;28;20187;-90
2022/07/24 17:27:17;;;;;;;7.25;5.80;;;;;;;;;;5048903;28;20183;-90
2022/07/24 17:30:23;;;;;;;6.30;5.70;;;;;;;;;;5059852;28;20530;-90
2022/07/24 17:33:27;;;;;;;5.97;5.47;;;;;;;;;;5048280;28;20190;-90
2022/07/24 17:36:31;;;;;;;6.70;6.10;;;;;;;;;;5032972;28;20200;-90
2022/07/24 17:39:35;;;;;;;6.07;5.50;;;;;;;;;;5047585;28;20224;-90
2022/07/24 17:42:40;;;;;;;8.73;6.40;;;;;;;;;;5069414;28;20189;-90
2022/07/24 17:45:44;;;;;;;6.25;5.65;;;;;;;;;;5054674;28;20191;-90
2022/07/24 17:48:49;;;;;;;8.25;6.50;;;;;;;;;;5049863;28;20216;-90
2022/07/24 17:51:53;;;;;;;6.32;5.72;;;;;;;;;;5048889;28;20189;-90
2022/07/24 17:54:57;;;;;;;7.10;6.30;;;;;;;;;;5043714;28;20191;-89
2022/07/24 17:58:01;;;;;;;7.53;6.07;;;;;;;;;;5060281;28;20206;-90
2022/07/24 18:01:05;;;;;;;8.20;5.70;;;;;;;;;;5048729;28;20193;-90
2022/07/24 18:04:10;;;;;;;9.45;6.57;;;;;;;;;;5052401;28;20189;-90
2022/07/24 18:07:14;;;;;;;6.90;6.22;;;;;;;;;;5052856;28;20173;-90
2022/07/24 18:10:18;;;;;;;6.80;6.10;;;;;;;;;;5052933;28;20181;-90
2022/07/24 18:13:22;;;;;;;7.22;6.43;;;;;;;;;;5052272;28;20188;-90
2022/07/24 18:16:26;;;;;;;6.70;6.10;;;;;;;;;;5052334;28;20287;-90
2022/07/24 18:19:30;;;;;;;12.00;6.38;;;;;;;;;;5052524;28;20226;-90
2022/07/24 18:22:34;;;;;;;7.75;6.40;;;;;;;;;;5064152;28;20215;-90
2022/07/24 18:25:38;;;;;;;7.32;6.38;;;;;;;;;;5075478;28;20179;-89
2022/07/24 18:28:42;;;;;;;7.30;6.38;;;;;;;;;;5034267;28;20214;-89
2022/07/24 18:31:47;;;;;;;6.80;6.13;;;;;;;;;;5062342;28;20196;-89
2022/07/24 18:34:51;;;;;;;7.93;6.43;;;;;;;;;;5052003;28;20197;-89
2022/07/24 18:37:55;;;;;;;6.72;6.13;;;;;;;;;;5050902;28;20212;-89
2022/07/24 18:40:59;;;;;;;7.20;6.60;;;;;;;;;;5074924;28;20209;-89
2022/07/24 18:44:03;;;;;;;7.38;6.68;;;;;;;;;;5043521;28;20205;-90
2022/07/24 18:47:09;;;;;;;7.43;6.70;;;;;;;;;;5050201;28;20596;-89
2022/07/24 18:50:14;;;;;;;11.43;6.80;;;;;;;;;;5051425;28;20197;-89
2022/07/24 18:53:18;;;;;;;8.32;7.28;;;;;;;;;;5042054;28;20190;-89
2022/07/24 18:56:24;;;;;;;7.88;6.57;;;;;;;;;;5051548;28;20187;-90
2022/07/24 18:59:28;;;;;;;9.63;6.88;;;;;;;;;;5043167;28;20209;-89
2022/07/24 19:02:33;;;;;;;8.07;6.78;;;;;;;;;;5050451;28;20192;-88
2022/07/24 19:05:39;;;;;;;7.07;6.47;;;;;;;;;;5036927;28;20645;-90
2022/07/24 19:08:43;;;;;;;7.80;7.10;;;;;;;;;;5032257;28;20676;-90
2022/07/24 19:11:47;;;;;;;8.77;7.13;;;;;;;;;;5056385;28;20195;-90
2022/07/24 19:14:51;;;;;;;7.90;7.10;;;;;;;;;;5051098;28;20189;-89
2022/07/24 19:17:55;;;;;;;8.80;7.87;;;;;;;;;;5055446;28;20209;-85
2022/07/24 19:20:59;;;;;;;8.23;7.30;;;;;;;;;;5043870;28;20180;-85
2022/07/24 19:24:04;;;;;;;11.20;7.60;;;;;;;;;;5031837;28;20186;-86
2022/07/24 19:27:08;;;;;;;9.20;7.70;;;;;;;;;;5042937;28;20197;-87
2022/07/24 19:30:12;;;;;;;8.17;7.40;;;;;;;;;;5059620;28;20181;-86
2022/07/24 19:33:16;;;;;;;9.20;8.27;;;;;;;;;;5045106;28;20183;-86
2022/07/24 19:36:20;;;;;;;9.27;7.83;;;;;;;;;;5045474;28;20199;-86
2022/07/24 19:39:24;;;;;;;8.60;7.70;;;;;;;;;;5044736;28;20212;-86
2022/07/24 19:42:28;;;;;;;9.83;8.00;;;;;;;;;;5046633;28;20192;-85
2022/07/24 19:45:32;;;;;;;9.27;7.97;;;;;;;;;;5045906;28;20185;-86
2022/07/24 19:48:37;;;;;;;11.47;7.93;;;;;;;;;;5046062;28;20209;-86
2022/07/24 19:51:40;;;;;;;11.40;7.57;;;;;;;;;;5050009;28;20199;-86
2022/07/24 19:54:46;;;;;;;9.03;8.13;;;;;;;;;;5050619;28;20229;-86
2022/07/24 19:57:50;;;;;;;7.50;6.67;;;;;;;;;;5050657;28;20211;-86
2022/07/24 20:00:54;;;;;;;7.97;7.17;;;;;;;;;;5050404;28;20193;-86
2022/07/24 20:04:00;;;;;;;8.93;8.13;;;;;;;;;;5050145;28;20530;-86
2022/07/24 20:07:04;;;;;;;9.90;7.90;;;;;;;;;;5049932;28;20200;-86
2022/07/24 20:10:09;;;;;;;10.27;8.03;;;;;;;;;;5061526;28;20215;-86
2022/07/24 20:13:13;;;;;;;8.93;7.40;;;;;;;;;;5050833;28;20184;-86
2022/07/24 20:16:17;;;;;;;8.27;7.47;;;;;;;;;;5048300;28;20194;-86
2022/07/24 20:19:21;;;;;;;10.00;8.10;;;;;;;;;;5031461;28;20220;-86
2022/07/24 20:22:25;;;;;;;9.00;8.20;;;;;;;;;;5019502;28;20657;-85
2022/07/24 20:25:29;;;;;;;8.30;7.47;;;;;;;;;;5042111;28;20176;-86
2022/07/24 20:28:34;;;;;;;9.50;8.50;;;;;;;;;;5056856;28;20590;-85
2022/07/24 20:31:38;;;;;;;9.77;7.87;;;;;;;;;;5050533;28;20184;-86
2022/07/24 20:34:42;;;;;;;10.90;7.93;;;;;;;;;;5041579;28;20188;-86
2022/07/24 20:37:46;;;;;;;9.40;8.50;;;;;;;;;;5045528;28;20206;-86
2022/07/24 20:40:51;;;;;;;8.47;7.60;;;;;;;;;;5071533;28;20551;-86
2022/07/24 20:43:55;;;;;;;8.97;7.70;;;;;;;;;;5074683;28;20625;-86
2022/07/24 20:46:59;;;;;;;10.63;7.80;;;;;;;;;;5050441;28;20180;-86
2022/07/24 20:50:05;;;;;;;9.30;8.33;;;;;;;;;;5085415;28;20219;-86
2022/07/24 20:53:09;;;;;;;8.33;7.50;;;;;;;;;;5055620;28;20195;-86
2022/07/24 20:56:13;;;;;;;9.63;8.00;;;;;;;;;;5032790;28;20188;-86
2022/07/24 20:59:17;;;;;;;8.70;7.90;;;;;;;;;;5031260;28;20220;-86
2022/07/24 21:02:21;;;;;;;8.97;8.13;;;;;;;;;;5042090;28;20184;-86
2022/07/24 21:05:25;;;;;;;10.00;8.07;;;;;;;;;;5043324;28;20184;-86
2022/07/24 21:08:30;;;;;;;10.60;8.27;;;;;;;;;;5042607;28;20224;-85
2022/07/24 21:11:34;;;;;;;9.40;8.47;;;;;;;;;;5053530;28;20189;-86
2022/07/24 21:14:38;;;;;;;9.47;8.47;;;;;;;;;;5042641;28;20515;-86
2022/07/24 21:17:43;;;;;;;8.87;7.97;;;;;;;;;;5042331;28;20215;-86
2022/07/24 21:20:50;;;;;;;9.40;8.40;;;;;;;;;;5072556;22;20223;-85
2022/07/24 21:23:55;;;;;;;12.27;9.03;;;;;;;;;;5051459;28;20167;-86
2022/07/24 21:26:59;;;;;;;9.00;8.13;;;;;;;;;;5062686;28;20179;-85
2022/07/24 21:30:03;;;;;;;8.57;7.77;;;;;;;;;;5061676;28;20176;-86
2022/07/24 21:33:07;;;;;;;9.97;8.97;;;;;;;;;;5042127;28;20176;-86
2022/07/24 21:36:11;;;;;;;9.87;8.90;;;;;;;;;;5044056;28;20538;-86
2022/07/24 21:39:16;;;;;;;9.13;8.23;;;;;;;;;;5045689;28;20200;-86
2022/07/24 21:42:20;;;;;;;10.30;8.67;;;;;;;;;;5034064;28;20215;-86
2022/07/24 21:45:24;;;;;;;12.40;8.67;;;;;;;;;;5033791;28;20187;-86
2022/07/24 21:48:28;;;;;;;10.10;8.20;;;;;;;;;;5045645;28;20176;-86
2022/07/24 21:51:32;;;;;;;9.33;8.33;;;;;;;;;;5044961;28;20579;-86
2022/07/24 21:54:36;;;;;;;10.20;8.60;;;;;;;;;;5044525;28;20200;-86
2022/07/24 21:57:40;;;;;;;11.00;9.10;;;;;;;;;;5044937;28;20194;-86
2022/07/24 22:00:46;;;;;;;9.87;8.87;;;;;;;;;;5044332;28;20225;-86